Terminal Aerodrome Forecast
Issued by NWS Charleston, WV

Home | Current Version | Previous Version | Text Only | Print | Product List | Glossary On
Versions: 1 2 3 4 5 6 7 8 9 10 11 12 13 14 15 16 17 18
000
FTUS41 KRLX 301120
TAFBKW
TAF
KBKW 301120Z 3012/3112 VRB03KT P6SM SCT025
     FM301400 00000KT P6SM BKN025
     FM301700 00000KT P6SM BKN040
     FM302200 VRB03KT P6SM VCTS BKN040CB
     FM310000 16004KT P6SM BKN040=

USA.gov is the U.S. government's official web portal to all federal, state and local government web resources and services.